sensor_id;sensor_type;location;lat;lon;timestamp;pressure;altitude;pressure_sealevel;temperature;humidity
8894;BME280;4483;48.622;9.230;2023-04-25T00:02:25;97289.28;;;8.65;94.19
8894;BME280;4483;48.622;9.230;2023-04-25T00:04:53;97297.84;;;8.65;94.31
8894;BME280;4483;48.622;9.230;2023-04-25T00:07:24;97291.06;;;8.64;94.72
8894;BME280;4483;48.622;9.230;2023-04-25T00:09:51;97287.50;;;8.67;94.48
8894;BME280;4483;48.622;9.230;2023-04-25T00:12:18;97281.41;;;8.69;94.72
8894;BME280;4483;48.622;9.230;2023-04-25T00:14:45;97272.78;;;8.70;95.10
8894;BME280;4483;48.622;9.230;2023-04-25T00:17:13;97271.06;;;8.71;94.67
8894;BME280;4483;48.622;9.230;2023-04-25T00:19:40;97277.09;;;8.70;95.13
8894;BME280;4483;48.622;9.230;2023-04-25T00:22:06;97280.56;;;8.69;94.94
8894;BME280;4483;48.622;9.230;2023-04-25T00:24:34;97287.44;;;8.68;94.96
8894;BME280;4483;48.622;9.230;2023-04-25T00:27:00;97291.69;;;8.69;95.12
8894;BME280;4483;48.622;9.230;2023-04-25T00:29:27;97289.94;;;8.70;95.43
8894;BME280;4483;48.622;9.230;2023-04-25T00:31:53;97288.97;;;8.72;95.61
8894;BME280;4483;48.622;9.230;2023-04-25T00:34:21;97280.44;;;8.72;95.67
8894;BME280;4483;48.622;9.230;2023-04-25T00:36:48;97277.16;;;8.68;95.59
8894;BME280;4483;48.622;9.230;2023-04-25T00:39:15;97287.50;;;8.67;96.03
8894;BME280;4483;48.622;9.230;2023-04-25T00:41:41;97284.16;;;8.65;95.44
8894;BME280;4483;48.622;9.230;2023-04-25T00:44:09;97281.88;;;8.59;95.93
8894;BME280;4483;48.622;9.230;2023-04-25T00:46:38;97288.72;;;8.58;96.63
8894;BME280;4483;48.622;9.230;2023-04-25T00:49:05;97284.47;;;8.57;96.50
8894;BME280;4483;48.622;9.230;2023-04-25T00:51:34;97277.69;;;8.56;96.57
8894;BME280;4483;48.622;9.230;2023-04-25T00:54:01;97278.56;;;8.55;96.44
8894;BME280;4483;48.622;9.230;2023-04-25T00:56:28;97276.78;;;8.57;96.70
8894;BME280;4483;48.622;9.230;2023-04-25T00:58:56;97264.78;;;8.58;96.90
8894;BME280;4483;48.622;9.230;2023-04-25T01:01:23;97269.91;;;8.58;96.69
8894;BME280;4483;48.622;9.230;2023-04-25T01:03:49;97269.97;;;8.56;97.48
8894;BME280;4483;48.622;9.230;2023-04-25T01:06:16;97266.50;;;8.57;97.32
8894;BME280;4483;48.622;9.230;2023-04-25T01:08:45;97265.47;;;8.61;97.42
8894;BME280;4483;48.622;9.230;2023-04-25T01:11:11;97262.81;;;8.64;98.17
8894;BME280;4483;48.622;9.230;2023-04-25T01:13:38;97260.97;;;8.66;97.98
8894;BME280;4483;48.622;9.230;2023-04-25T01:16:05;97257.53;;;8.67;97.47
8894;BME280;4483;48.622;9.230;2023-04-25T01:18:31;97259.13;;;8.70;98.17
8894;BME280;4483;48.622;9.230;2023-04-25T01:21:07;97262.53;;;8.70;97.94
8894;BME280;4483;48.622;9.230;2023-04-25T01:23:34;97251.38;;;8.71;98.07
8894;BME280;4483;48.622;9.230;2023-04-25T01:26:01;97252.13;;;8.73;97.91
8894;BME280;4483;48.622;9.230;2023-04-25T01:28:28;97251.22;;;8.74;98.56
8894;BME280;4483;48.622;9.230;2023-04-25T01:30:55;97253.78;;;8.74;99.21
8894;BME280;4483;48.622;9.230;2023-04-25T01:33:22;97244.38;;;8.75;99.16
8894;BME280;4483;48.622;9.230;2023-04-25T01:35:49;97241.72;;;8.76;99.35
8894;BME280;4483;48.622;9.230;2023-04-25T01:38:17;97246.03;;;8.76;99.10
8894;BME280;4483;48.622;9.230;2023-04-25T01:40:45;97246.03;;;8.76;99.52
8894;BME280;4483;48.622;9.230;2023-04-25T01:43:12;97246.78;;;8.78;99.73
8894;BME280;4483;48.622;9.230;2023-04-25T01:45:39;97246.72;;;8.79;99.63
8894;BME280;4483;48.622;9.230;2023-04-25T01:48:06;97237.22;;;8.81;99.38
8894;BME280;4483;48.622;9.230;2023-04-25T01:50:33;97239.00;;;8.79;99.62
8894;BME280;4483;48.622;9.230;2023-04-25T01:53:00;97242.50;;;8.78;99.75
8894;BME280;4483;48.622;9.230;2023-04-25T01:55:29;97244.22;;;8.78;99.92
8894;BME280;4483;48.622;9.230;2023-04-25T01:57:55;97238.25;;;8.77;99.83
8894;BME280;4483;48.622;9.230;2023-04-25T02:00:22;97244.22;;;8.78;99.55
8894;BME280;4483;48.622;9.230;2023-04-25T02:02:49;97246.88;;;8.76;99.91
8894;BME280;4483;48.622;9.230;2023-04-25T02:05:18;97249.44;;;8.76;99.46
8894;BME280;4483;48.622;9.230;2023-04-25T02:07:45;97249.44;;;8.76;99.33
8894;BME280;4483;48.622;9.230;2023-04-25T02:10:12;97244.28;;;8.76;99.92
8894;BME280;4483;48.622;9.230;2023-04-25T02:12:40;97246.88;;;8.76;99.83
8894;BME280;4483;48.622;9.230;2023-04-25T02:15:07;97250.28;;;8.77;100.00
8894;BME280;4483;48.622;9.230;2023-04-25T02:17:34;97252.69;;;8.80;100.00
8894;BME280;4483;48.622;9.230;2023-04-25T02:20:01;97248.41;;;8.80;99.63
8894;BME280;4483;48.622;9.230;2023-04-25T02:22:28;97236.53;;;8.78;100.00
8894;BME280;4483;48.622;9.230;2023-04-25T02:24:55;97223.22;;;8.68;100.00
8894;BME280;4483;48.622;9.230;2023-04-25T02:27:22;97222.47;;;8.66;100.00
8894;BME280;4483;48.622;9.230;2023-04-25T02:29:50;97224.31;;;8.63;100.00
8894;BME280;4483;48.622;9.230;2023-04-25T02:32:17;97224.41;;;8.61;100.00
8894;BME280;4483;48.622;9.230;2023-04-25T02:34:43;97212.47;;;8.60;100.00
8894;BME280;4483;48.622;9.230;2023-04-25T02:37:10;97211.56;;;8.61;100.00
8894;BME280;4483;48.622;9.230;2023-04-25T02:39:37;97207.25;;;8.62;100.00
8894;BME280;4483;48.622;9.230;2023-04-25T02:42:03;97208.09;;;8.62;100.00
8894;BME280;4483;48.622;9.230;2023-04-25T02:44:30;97218.38;;;8.62;100.00
8894;BME280;4483;48.622;9.230;2023-04-25T02:46:58;97215.03;;;8.60;100.00
8894;BME280;4483;48.622;9.230;2023-04-25T02:49:25;97221.06;;;8.59;100.00
8894;BME280;4483;48.622;9.230;2023-04-25T02:51:52;97228.75;;;8.59;100.00
8894;BME280;4483;48.622;9.230;2023-04-25T02:54:18;97229.59;;;8.60;100.00
8894;BME280;4483;48.622;9.230;2023-04-25T02:56:45;97223.63;;;8.59;100.00
8894;BME280;4483;48.622;9.230;2023-04-25T02:59:12;97221.19;;;8.56;100.00
8894;BME280;4483;48.622;9.230;2023-04-25T03:01:39;97217.09;;;8.52;100.00
8894;BME280;4483;48.622;9.230;2023-04-25T03:04:07;97219.03;;;8.47;100.00
8894;BME280;4483;48.622;9.230;2023-04-25T03:06:33;97214.91;;;8.43;100.00
8894;BME280;4483;48.622;9.230;2023-04-25T03:09:00;97206.50;;;8.40;100.00
8894;BME280;4483;48.622;9.230;2023-04-25T03:11:27;97206.66;;;8.37;100.00
8894;BME280;4483;48.622;9.230;2023-04-25T03:13:53;97203.41;;;8.32;100.00
8894;BME280;4483;48.622;9.230;2023-04-25T03:16:21;97198.41;;;8.29;100.00
8894;BME280;4483;48.622;9.230;2023-04-25T03:18:47;97199.31;;;8.28;100.00
8894;BME280;4483;48.622;9.230;2023-04-25T03:21:17;97197.72;;;8.25;100.00
8894;BME280;4483;48.622;9.230;2023-04-25T03:23:43;97199.38;;;8.26;100.00
8894;BME280;4483;48.622;9.230;2023-04-25T03:26:10;97198.47;;;8.27;100.00
8894;BME280;4483;48.622;9.230;2023-04-25T03:28:36;97198.41;;;8.29;100.00
8894;BME280;4483;48.622;9.230;2023-04-25T03:31:04;97204.38;;;8.29;100.00
8894;BME280;4483;48.622;9.230;2023-04-25T03:33:31;97202.59;;;8.31;100.00
8894;BME280;4483;48.622;9.230;2023-04-25T03:35:58;97199.19;;;8.31;100.00
8894;BME280;4483;48.622;9.230;2023-04-25T03:38:26;97199.25;;;8.29;100.00
8894;BME280;4483;48.622;9.230;2023-04-25T03:40:53;97204.31;;;8.31;100.00
8894;BME280;4483;48.622;9.230;2023-04-25T03:43:21;97189.09;;;8.26;100.00
8894;BME280;4483;48.622;9.230;2023-04-25T03:45:48;97197.47;;;8.31;100.00
8894;BME280;4483;48.622;9.230;2023-04-25T03:48:14;97198.25;;;8.33;100.00
8894;BME280;4483;48.622;9.230;2023-04-25T03:50:41;97188.84;;;8.32;100.00
8894;BME280;4483;48.622;9.230;2023-04-25T03:53:08;97189.88;;;8.28;100.00
8894;BME280;4483;48.622;9.230;2023-04-25T03:55:36;97185.75;;;8.24;100.00
8894;BME280;4483;48.622;9.230;2023-04-25T03:58:02;97190.13;;;8.22;100.00
8894;BME280;4483;48.622;9.230;2023-04-25T04:00:29;97193.69;;;8.18;100.00
8894;BME280;4483;48.622;9.230;2023-04-25T04:02:56;97193.00;;;8.14;100.00
8894;BME280;4483;48.622;9.230;2023-04-25T04:05:22;97199.00;;;8.13;100.00
8894;BME280;4483;48.622;9.230;2023-04-25T04:07:49;97199.06;;;8.12;100.00
8894;BME280;4483;48.622;9.230;2023-04-25T04:10:15;97199.16;;;8.10;100.00
8894;BME280;4483;48.622;9.230;2023-04-25T04:12:43;97206.97;;;8.07;100.00
8894;BME280;4483;48.622;9.230;2023-04-25T04:15:10;97203.56;;;8.07;100.00
8894;BME280;4483;48.622;9.230;2023-04-25T04:17:37;97206.22;;;8.05;100.00
8894;BME280;4483;48.622;9.230;2023-04-25T04:20:05;97208.88;;;8.02;100.00
8894;BME280;4483;48.622;9.230;2023-04-25T04:22:33;97217.53;;;8.00;100.00
8894;BME280;4483;48.622;9.230;2023-04-25T04:25:00;97211.56;;;7.99;100.00
8894;BME280;4483;48.622;9.230;2023-04-25T04:27:27;97209.16;;;7.96;100.00
8894;BME280;4483;48.622;9.230;2023-04-25T04:29:56;97215.16;;;7.95;100.00
8894;BME280;4483;48.622;9.230;2023-04-25T04:32:23;97215.09;;;7.97;100.00
8894;BME280;4483;48.622;9.230;2023-04-25T04:34:50;97218.44;;;7.99;100.00
8894;BME280;4483;48.622;9.230;2023-04-25T04:37:17;97214.91;;;8.01;100.00
8894;BME280;4483;48.622;9.230;2023-04-25T04:39:44;97204.66;;;8.01;100.00
8894;BME280;4483;48.622;9.230;2023-04-25T04:42:10;97204.72;;;8.00;100.00
8894;BME280;4483;48.622;9.230;2023-04-25T04:44:37;97205.50;;;8.02;100.00
8894;BME280;4483;48.622;9.230;2023-04-25T04:47:06;97210.50;;;8.05;100.00
8894;BME280;4483;48.622;9.230;2023-04-25T04:49:33;97211.34;;;8.05;100.00
8894;BME280;4483;48.622;9.230;2023-04-25T04:52:00;97219.06;;;8.04;100.00
8894;BME280;4483;48.622;9.230;2023-04-25T04:54:26;97226.75;;;8.04;100.00
8894;BME280;4483;48.622;9.230;2023-04-25T04:56:53;97229.22;;;8.07;100.00
8894;BME280;4483;48.622;9.230;2023-04-25T04:59:20;97223.13;;;8.09;100.00
8894;BME280;4483;48.622;9.230;2023-04-25T05:01:47;97227.94;;;8.17;100.00
8894;BME280;4483;48.622;9.230;2023-04-25T05:04:15;97240.66;;;8.20;100.00
8894;BME280;4483;48.622;9.230;2023-04-25T05:06:41;97240.66;;;8.20;100.00
8894;BME280;4483;48.622;9.230;2023-04-25T05:09:09;97241.59;;;8.18;100.00
8894;BME280;4483;48.622;9.230;2023-04-25T05:11:36;97243.22;;;8.20;100.00
8894;BME280;4483;48.622;9.230;2023-04-25T05:14:02;97240.53;;;8.23;100.00
8894;BME280;4483;48.622;9.230;2023-04-25T05:16:29;97241.38;;;8.24;100.00
8894;BME280;4483;48.622;9.230;2023-04-25T05:18:56;97235.38;;;8.25;100.00
8894;BME280;4483;48.622;9.230;2023-04-25T05:21:24;97231.94;;;8.24;100.00
8894;BME280;4483;48.622;9.230;2023-04-25T05:23:50;97231.06;;;8.25;100.00
8894;BME280;4483;48.622;9.230;2023-04-25T05:26:17;97231.84;;;8.27;100.00
8894;BME280;4483;48.622;9.230;2023-04-25T05:28:44;97232.72;;;8.26;100.00
8894;BME280;4483;48.622;9.230;2023-04-25T05:31:10;97237.69;;;8.31;100.00
8894;BME280;4483;48.622;9.230;2023-04-25T05:33:37;97236.66;;;8.35;100.00
8894;BME280;4483;48.622;9.230;2023-04-25T05:36:04;97234.75;;;8.40;100.00
8894;BME280;4483;48.622;9.230;2023-04-25T05:38:33;97240.50;;;8.45;100.00
8894;BME280;4483;48.622;9.230;2023-04-25T05:40:59;97242.81;;;8.51;100.00
8894;BME280;4483;48.622;9.230;2023-04-25T05:43:26;97238.25;;;8.57;100.00
8894;BME280;4483;48.622;9.230;2023-04-25T05:45:53;97231.84;;;8.67;100.00
8894;BME280;4483;48.622;9.230;2023-04-25T05:48:19;97234.41;;;8.67;100.00
8894;BME280;4483;48.622;9.230;2023-04-25T05:50:46;97239.34;;;8.72;100.00
8894;BME280;4483;48.622;9.230;2023-04-25T05:53:13;97240.69;;;8.80;100.00
8894;BME280;4483;48.622;9.230;2023-04-25T05:55:41;97229.25;;;8.87;100.00
8894;BME280;4483;48.622;9.230;2023-04-25T05:58:07;97231.56;;;8.93;100.00
8894;BME280;4483;48.622;9.230;2023-04-25T06:00:34;97230.31;;;9.02;100.00
8894;BME280;4483;48.622;9.230;2023-04-25T06:03:01;97233.41;;;9.10;100.00
8894;BME280;4483;48.622;9.230;2023-04-25T06:05:28;97232.91;;;9.21;100.00
8894;BME280;4483;48.622;9.230;2023-04-25T06:07:54;97230.03;;;9.27;100.00
8894;BME280;4483;48.622;9.230;2023-04-25T06:10:21;97220.25;;;9.35;100.00
8894;BME280;4483;48.622;9.230;2023-04-25T06:12:49;97225.69;;;9.47;100.00
8894;BME280;4483;48.622;9.230;2023-04-25T06:15:16;97225.94;;;9.60;100.00
8894;BME280;4483;48.622;9.230;2023-04-25T06:17:42;97221.78;;;9.76;100.00
8894;BME280;4483;48.622;9.230;2023-04-25T06:20:10;97223.00;;;9.86;100.00
8894;BME280;4483;48.622;9.230;2023-04-25T06:22:36;97231.19;;;9.94;100.00
8894;BME280;4483;48.622;9.230;2023-04-25T06:25:03;97231.78;;;9.99;100.00
8894;BME280;4483;48.622;9.230;2023-04-25T06:27:30;97233.00;;;10.10;100.00
8894;BME280;4483;48.622;9.230;2023-04-25T06:29:58;97223.69;;;10.25;100.00
8894;BME280;4483;48.622;9.230;2023-04-25T06:32:25;97222.31;;;10.35;100.00
8894;BME280;4483;48.622;9.230;2023-04-25T06:34:52;97232.41;;;10.40;100.00
8894;BME280;4483;48.622;9.230;2023-04-25T06:37:19;97228.38;;;10.34;100.00
8894;BME280;4483;48.622;9.230;2023-04-25T06:39:46;97227.03;;;10.27;100.00
8894;BME280;4483;48.622;9.230;2023-04-25T06:42:12;97228.97;;;10.22;100.00
8894;BME280;4483;48.622;9.230;2023-04-25T06:44:39;97223.38;;;10.14;100.00
8894;BME280;4483;48.622;9.230;2023-04-25T06:47:07;97231.31;;;10.09;100.00
8894;BME280;4483;48.622;9.230;2023-04-25T06:49:34;97226.50;;;10.02;100.00
8894;BME280;4483;48.622;9.230;2023-04-25T06:52:00;97228.63;;;9.94;100.00
8894;BME280;4483;48.622;9.230;2023-04-25T06:54:27;97227.97;;;9.89;100.00
8894;BME280;4483;48.622;9.230;2023-04-25T06:56:55;97226.25;;;9.89;100.00
8894;BME280;4483;48.622;9.230;2023-04-25T06:59:22;97226.16;;;9.91;100.00
8894;BME280;4483;48.622;9.230;2023-04-25T07:01:48;97229.81;;;9.87;100.00
8894;BME280;4483;48.622;9.230;2023-04-25T07:04:16;97232.66;;;9.81;100.00
8894;BME280;4483;48.622;9.230;2023-04-25T07:06:43;97235.44;;;9.76;100.00
8894;BME280;4483;48.622;9.230;2023-04-25T07:09:10;97236.56;;;9.71;100.00
8894;BME280;4483;48.622;9.230;2023-04-25T07:11:37;97236.88;;;9.65;100.00
8894;BME280;4483;48.622;9.230;2023-04-25T07:14:04;97234.41;;;9.62;100.00
8894;BME280;4483;48.622;9.230;2023-04-25T07:16:30;97231.09;;;9.60;100.00
8894;BME280;4483;48.622;9.230;2023-04-25T07:18:57;97236.31;;;9.58;100.00
8894;BME280;4483;48.622;9.230;2023-04-25T07:21:26;97235.47;;;9.58;100.00
8894;BME280;4483;48.622;9.230;2023-04-25T07:23:52;97242.38;;;9.57;100.00
8894;BME280;4483;48.622;9.230;2023-04-25T07:26:19;97239.88;;;9.56;100.00
8894;BME280;4483;48.622;9.230;2023-04-25T07:28:45;97243.31;;;9.55;100.00
8894;BME280;4483;48.622;9.230;2023-04-25T07:31:15;97245.00;;;9.56;100.00
8894;BME280;4483;48.622;9.230;2023-04-25T07:33:43;97246.81;;;9.54;100.00
8894;BME280;4483;48.622;9.230;2023-04-25T07:36:10;97251.28;;;9.50;100.00
8894;BME280;4483;48.622;9.230;2023-04-25T07:38:38;97255.00;;;9.43;100.00
8894;BME280;4483;48.622;9.230;2023-04-25T07:41:04;97255.22;;;9.39;100.00
8894;BME280;4483;48.622;9.230;2023-04-25T07:43:31;97248.53;;;9.35;100.00
8894;BME280;4483;48.622;9.230;2023-04-25T07:45:58;97261.66;;;9.29;100.00
8894;BME280;4483;48.622;9.230;2023-04-25T07:48:24;97260.97;;;9.25;100.00
8894;BME280;4483;48.622;9.230;2023-04-25T07:50:51;97271.25;;;9.25;100.00
8894;BME280;4483;48.622;9.230;2023-04-25T07:53:17;97271.94;;;9.29;100.00
8894;BME280;4483;48.622;9.230;2023-04-25T07:55:45;97275.28;;;9.31;100.00
8894;BME280;4483;48.622;9.230;2023-04-25T07:58:12;97282.09;;;9.32;100.00
8894;BME280;4483;48.622;9.230;2023-04-25T08:00:40;97285.56;;;9.31;100.00
8894;BME280;4483;48.622;9.230;2023-04-25T08:03:09;97284.75;;;9.30;100.00
8894;BME280;4483;48.622;9.230;2023-04-25T08:05:35;97296.84;;;9.28;100.00
8894;BME280;4483;48.622;9.230;2023-04-25T08:08:02;97299.75;;;9.21;100.00
8894;BME280;4483;48.622;9.230;2023-04-25T08:10:31;97307.78;;;9.13;100.00
8894;BME280;4483;48.622;9.230;2023-04-25T08:12:59;97302.81;;;9.08;100.00
8894;BME280;4483;48.622;9.230;2023-04-25T08:15:26;97302.88;;;9.07;100.00
8894;BME280;4483;48.622;9.230;2023-04-25T08:17:53;97310.53;;;9.08;100.00
8894;BME280;4483;48.622;9.230;2023-04-25T08:20:20;97316.38;;;9.12;100.00
8894;BME280;4483;48.622;9.230;2023-04-25T08:22:46;97320.69;;;9.11;100.00
8894;BME280;4483;48.622;9.230;2023-04-25T08:25:14;97324.16;;;9.10;100.00
8894;BME280;4483;48.622;9.230;2023-04-25T08:27:40;97327.75;;;9.06;100.00
8894;BME280;4483;48.622;9.230;2023-04-25T08:30:09;97331.22;;;9.05;100.00
8894;BME280;4483;48.622;9.230;2023-04-25T08:32:35;97337.22;;;9.06;100.00
8894;BME280;4483;48.622;9.230;2023-04-25T08:35:03;97334.88;;;9.00;100.00
8894;BME280;4483;48.622;9.230;2023-04-25T08:37:30;97338.31;;;9.00;100.00
8894;BME280;4483;48.622;9.230;2023-04-25T08:39:57;97341.75;;;8.99;100.00
8894;BME280;4483;48.622;9.230;2023-04-25T08:42:24;97340.88;;;9.00;100.00
8894;BME280;4483;48.622;9.230;2023-04-25T08:44:53;97346.81;;;9.01;100.00
8894;BME280;4483;48.622;9.230;2023-04-25T08:47:22;97352.75;;;9.03;100.00
8894;BME280;4483;48.622;9.230;2023-04-25T08:49:49;97356.00;;;9.06;100.00
8894;BME280;4483;48.622;9.230;2023-04-25T08:52:22;97359.34;;;9.08;100.00
8894;BME280;4483;48.622;9.230;2023-04-25T08:54:49;97353.44;;;9.06;100.00
8894;BME280;4483;48.622;9.230;2023-04-25T08:57:18;97361.81;;;9.11;100.00
8894;BME280;4483;48.622;9.230;2023-04-25T08:59:45;97365.84;;;9.17;100.00
8894;BME280;4483;48.622;9.230;2023-04-25T09:02:13;97363.06;;;9.22;100.00
8894;BME280;4483;48.622;9.230;2023-04-25T09:04:43;97369.75;;;9.26;100.00
8894;BME280;4483;48.622;9.230;2023-04-25T09:07:10;97373.09;;;9.28;100.00
8894;BME280;4483;48.622;9.230;2023-04-25T09:09:37;97384.94;;;9.32;100.00
8894;BME280;4483;48.622;9.230;2023-04-25T09:12:05;97386.34;;;9.39;100.00
8894;BME280;4483;48.622;9.230;2023-04-25T09:14:32;97388.38;;;9.31;100.00
8894;BME280;4483;48.622;9.230;2023-04-25T09:17:01;97384.22;;;9.28;100.00
8894;BME280;4483;48.622;9.230;2023-04-25T09:19:29;97392.13;;;9.24;100.00
8894;BME280;4483;48.622;9.230;2023-04-25T09:21:59;97393.22;;;9.18;100.00
8894;BME280;4483;48.622;9.230;2023-04-25T09:24:31;97396.03;;;9.12;100.00
8894;BME280;4483;48.622;9.230;2023-04-25T09:26:57;97404.72;;;9.09;100.00
8894;BME280;4483;48.622;9.230;2023-04-25T09:29:29;97403.81;;;9.10;100.00
8894;BME280;4483;48.622;9.230;2023-04-25T09:32:11;97413.28;;;9.10;100.00
8894;BME280;4483;48.622;9.230;2023-04-25T09:34:39;97415.38;;;9.00;100.00
8894;BME280;4483;48.622;9.230;2023-04-25T09:37:08;97417.94;;;9.00;100.00
8894;BME280;4483;48.622;9.230;2023-04-25T09:39:36;97426.44;;;9.02;100.00
8894;BME280;4483;48.622;9.230;2023-04-25T09:42:03;97429.00;;;9.02;100.00
8894;BME280;4483;48.622;9.230;2023-04-25T09:44:30;97425.66;;;9.00;100.00
8894;BME280;4483;48.622;9.230;2023-04-25T09:46:57;97429.88;;;9.01;100.00
8894;BME280;4483;48.622;9.230;2023-04-25T09:49:24;97435.81;;;9.03;100.00
8894;BME280;4483;48.622;9.230;2023-04-25T09:51:54;97442.34;;;9.10;100.00
8894;BME280;4483;48.622;9.230;2023-04-25T09:54:24;97439.28;;;9.02;100.00
8894;BME280;4483;48.622;9.230;2023-04-25T09:56:52;97442.75;;;9.01;100.00
8894;BME280;4483;48.622;9.230;2023-04-25T09:59:20;97445.94;;;9.06;100.00
8894;BME280;4483;48.622;9.230;2023-04-25T10:01:48;97449.28;;;9.08;100.00
8894;BME280;4483;48.622;9.230;2023-04-25T10:04:19;97454.25;;;9.13;100.00
8894;BME280;4483;48.622;9.230;2023-04-25T10:06:48;97454.31;;;9.11;100.00
8894;BME280;4483;48.622;9.230;2023-04-25T10:09:16;97451.22;;;9.03;100.00
8894;BME280;4483;48.622;9.230;2023-04-25T10:11:45;97449.72;;;8.98;100.00
8894;BME280;4483;48.622;9.230;2023-04-25T10:14:13;97455.59;;;9.01;100.00
8894;BME280;4483;48.622;9.230;2023-04-25T10:16:41;97457.38;;;8.99;100.00
8894;BME280;4483;48.622;9.230;2023-04-25T10:19:08;97461.88;;;8.94;100.00
8894;BME280;4483;48.622;9.230;2023-04-25T10:21:40;97464.56;;;8.91;100.00
8894;BME280;4483;48.622;9.230;2023-04-25T10:24:09;97478.59;;;8.83;100.00
8894;BME280;4483;48.622;9.230;2023-04-25T10:26:36;97475.31;;;8.79;100.00
8894;BME280;4483;48.622;9.230;2023-04-25T10:29:04;97472.09;;;8.74;100.00
8894;BME280;4483;48.622;9.230;2023-04-25T10:31:31;97479.81;;;8.74;100.00
8894;BME280;4483;48.622;9.230;2023-04-25T10:33:59;97473.94;;;8.71;100.00
8894;BME280;4483;48.622;9.230;2023-04-25T10:36:31;97481.94;;;8.63;100.00
8894;BME280;4483;48.622;9.230;2023-04-25T10:39:03;97488.28;;;8.55;100.00
8894;BME280;4483;48.622;9.230;2023-04-25T10:41:45;97486.50;;;8.57;100.00
8894;BME280;4483;48.622;9.230;2023-04-25T10:44:14;97493.28;;;8.58;100.00
8894;BME280;4483;48.622;9.230;2023-04-25T10:46:40;97495.69;;;8.62;100.00
8894;BME280;4483;48.622;9.230;2023-04-25T10:49:08;97505.66;;;8.70;100.00
8894;BME280;4483;48.622;9.230;2023-04-25T10:51:36;97507.91;;;8.77;100.00
8894;BME280;4483;48.622;9.230;2023-04-25T10:54:05;97505.25;;;8.80;100.00
8894;BME280;4483;48.622;9.230;2023-04-25T10:56:33;97509.84;;;8.72;100.00
8894;BME280;4483;48.622;9.230;2023-04-25T10:59:08;97512.53;;;8.69;100.00
8894;BME280;4483;48.622;9.230;2023-04-25T11:01:38;97512.41;;;8.72;100.00
8894;BME280;4483;48.622;9.230;2023-04-25T11:04:06;97516.81;;;8.69;100.00
8894;BME280;4483;48.622;9.230;2023-04-25T11:06:42;97525.38;;;8.69;100.00
8894;BME280;4483;48.622;9.230;2023-04-25T11:09:12;97522.81;;;8.69;100.00
8894;BME280;4483;48.622;9.230;2023-04-25T11:11:39;97522.81;;;8.69;100.00
8894;BME280;4483;48.622;9.230;2023-04-25T11:14:06;97527.69;;;8.75;100.00
8894;BME280;4483;48.622;9.230;2023-04-25T11:16:32;97532.72;;;8.78;99.24
8894;BME280;4483;48.622;9.230;2023-04-25T11:19:00;97535.38;;;8.77;97.65
8894;BME280;4483;48.622;9.230;2023-04-25T11:21:27;97536.81;;;8.61;99.17
8894;BME280;4483;48.622;9.230;2023-04-25T11:23:54;97538.78;;;8.54;100.00
8894;BME280;4483;48.622;9.230;2023-04-25T11:26:24;97539.69;;;8.53;100.00
8894;BME280;4483;48.622;9.230;2023-04-25T11:28:51;97538.19;;;8.48;100.00
8894;BME280;4483;48.622;9.230;2023-04-25T11:31:20;97539.97;;;8.46;100.00
8894;BME280;4483;48.622;9.230;2023-04-25T11:33:46;97544.94;;;8.50;100.00
8894;BME280;4483;48.622;9.230;2023-04-25T11:36:15;97542.25;;;8.53;99.19
8894;BME280;4483;48.622;9.230;2023-04-25T11:38:41;97540.56;;;8.52;99.32
8894;BME280;4483;48.622;9.230;2023-04-25T11:41:08;97542.56;;;8.44;100.00
8894;BME280;4483;48.622;9.230;2023-04-25T11:43:35;97555.38;;;8.46;100.00
8894;BME280;4483;48.622;9.230;2023-04-25T11:46:06;97544.13;;;8.48;100.00
8894;BME280;4483;48.622;9.230;2023-04-25T11:48:37;97543.97;;;8.53;100.00
8894;BME280;4483;48.622;9.230;2023-04-25T11:51:04;97554.19;;;8.54;100.00
8894;BME280;4483;48.622;9.230;2023-04-25T11:53:32;97547.50;;;8.50;100.00
8894;BME280;4483;48.622;9.230;2023-04-25T11:55:59;97552.63;;;8.50;100.00
8894;BME280;4483;48.622;9.230;2023-04-25T11:58:26;97559.44;;;8.51;100.00
8894;BME280;4483;48.622;9.230;2023-04-25T12:00:53;97565.59;;;8.47;100.00
8894;BME280;4483;48.622;9.230;2023-04-25T12:03:19;97567.97;;;8.52;100.00
8894;BME280;4483;48.622;9.230;2023-04-25T12:05:49;97572.75;;;8.61;100.00
8894;BME280;4483;48.622;9.230;2023-04-25T12:08:16;97578.34;;;8.72;100.00
8894;BME280;4483;48.622;9.230;2023-04-25T12:10:45;97577.06;;;8.83;100.00
8894;BME280;4483;48.622;9.230;2023-04-25T12:13:24;97578.25;;;8.96;100.00
8894;BME280;4483;48.622;9.230;2023-04-25T12:15:51;97580.41;;;9.07;100.00
8894;BME280;4483;48.622;9.230;2023-04-25T12:18:19;97579.81;;;9.22;100.00
8894;BME280;4483;48.622;9.230;2023-04-25T12:20:47;97576.72;;;9.36;100.00
8894;BME280;4483;48.622;9.230;2023-04-25T12:23:13;97582.91;;;9.52;100.00
8894;BME280;4483;48.622;9.230;2023-04-25T12:25:41;97578.28;;;9.60;100.00
8894;BME280;4483;48.622;9.230;2023-04-25T12:28:13;97572.13;;;9.64;99.08
8894;BME280;4483;48.622;9.230;2023-04-25T12:30:56;97579.66;;;9.68;100.00
8894;BME280;4483;48.622;9.230;2023-04-25T12:33:23;97585.38;;;9.75;99.97
8894;BME280;4483;48.622;9.230;2023-04-25T12:35:49;97585.06;;;9.82;99.32
8894;BME280;4483;48.622;9.230;2023-04-25T12:38:24;97583.34;;;9.83;98.71
8894;BME280;4483;48.622;9.230;2023-04-25T12:40:51;97588.34;;;9.86;98.37
8894;BME280;4483;48.622;9.230;2023-04-25T12:43:19;97594.41;;;9.85;98.46
8894;BME280;4483;48.622;9.230;2023-04-25T12:45:47;97600.44;;;9.84;98.43
8894;BME280;4483;48.622;9.230;2023-04-25T12:48:15;97604.72;;;9.83;98.77
8894;BME280;4483;48.622;9.230;2023-04-25T12:50:42;97592.84;;;9.81;99.27
8894;BME280;4483;48.622;9.230;2023-04-25T12:53:08;97599.53;;;9.85;99.15
8894;BME280;4483;48.622;9.230;2023-04-25T12:55:35;97596.84;;;9.88;98.30
8894;BME280;4483;48.622;9.230;2023-04-25T12:58:02;97605.09;;;9.96;99.17
8894;BME280;4483;48.622;9.230;2023-04-25T13:00:30;97602.06;;;10.06;98.28
8894;BME280;4483;48.622;9.230;2023-04-25T13:02:57;97596.91;;;10.27;98.15
8894;BME280;4483;48.622;9.230;2023-04-25T13:05:24;97600.88;;;10.54;97.33
8894;BME280;4483;48.622;9.230;2023-04-25T13:07:51;97602.50;;;10.75;97.06
8894;BME280;4483;48.622;9.230;2023-04-25T13:10:18;97604.25;;;10.93;96.52
8894;BME280;4483;48.622;9.230;2023-04-25T13:12:44;97590.59;;;11.09;96.05
8894;BME280;4483;48.622;9.230;2023-04-25T13:15:11;97589.22;;;11.20;94.90
8894;BME280;4483;48.622;9.230;2023-04-25T13:17:42;97588.94;;;11.26;94.79
8894;BME280;4483;48.622;9.230;2023-04-25T13:20:09;97588.59;;;11.33;94.87
8894;BME280;4483;48.622;9.230;2023-04-25T13:22:37;97595.03;;;11.42;93.90
8894;BME280;4483;48.622;9.230;2023-04-25T13:25:05;97591.25;;;11.49;93.14
8894;BME280;4483;48.622;9.230;2023-04-25T13:27:32;97586.41;;;11.60;92.83